createdAt,value
2019-03-10T00:02:39.536Z,84.00
2019-03-10T00:05:43.733Z,83.90
2019-03-10T00:08:48.117Z,83.40
2019-03-10T00:11:52.374Z,83.40
2019-03-10T00:14:56.796Z,83.00
2019-03-10T00:18:01.129Z,82.70
2019-03-10T00:21:05.511Z,81.80
2019-03-10T00:24:09.786Z,80.60
2019-03-10T00:27:14.064Z,80.70
2019-03-10T00:30:18.520Z,82.20
2019-03-10T00:33:22.787Z,81.80
2019-03-10T00:36:27.140Z,81.30
2019-03-10T00:40:20.276Z,80.80
2019-03-10T00:43:55.828Z,80.30
2019-03-10T00:47:43.552Z,79.90
2019-03-10T00:51:12.288Z,79.60
2019-03-10T00:54:16.946Z,79.30
2019-03-10T00:57:21.277Z,78.90
2019-03-10T01:00:25.569Z,78.50
2019-03-10T01:03:29.906Z,78.30
2019-03-10T01:06:34.395Z,78.20
2019-03-10T01:09:39.501Z,78.20
2019-03-10T01:12:44.284Z,78.20
2019-03-10T01:15:49.024Z,78.10
2019-03-10T01:18:55.379Z,78.10
2019-03-10T01:22:01.049Z,77.90
2019-03-10T01:25:05.934Z,78.00
2019-03-10T01:28:10.201Z,78.00
2019-03-10T01:31:29.447Z,77.70
2019-03-10T01:34:54.615Z,77.70
2019-03-10T01:37:58.908Z,77.50
2019-03-10T01:41:03.156Z,77.40
2019-03-10T01:44:07.430Z,77.10
2019-03-10T01:47:11.610Z,76.90
2019-03-10T01:50:16.273Z,75.70
2019-03-10T01:53:25.488Z,73.50
2019-03-10T01:56:26.622Z,73.00
2019-03-10T01:59:30.946Z,72.90
2019-03-10T02:02:35.299Z,72.00
2019-03-10T02:05:39.554Z,71.50
2019-03-10T02:08:43.823Z,70.40
2019-03-10T02:11:47.995Z,70.20
2019-03-10T02:14:52.272Z,68.30
2019-03-10T02:17:56.453Z,67.70
2019-03-10T02:21:00.850Z,67.70
2019-03-10T02:24:05.244Z,67.00
2019-03-10T02:27:09.513Z,66.90
2019-03-10T02:30:16.046Z,66.30
2019-03-10T02:33:20.436Z,66.20
2019-03-10T02:36:24.666Z,65.90
2019-03-10T02:39:28.939Z,65.80
2019-03-10T02:42:33.341Z,64.50
2019-03-10T02:45:37.707Z,64.00
2019-03-10T02:48:41.961Z,64.70
2019-03-10T02:51:46.376Z,64.30
2019-03-10T02:54:50.716Z,63.90
2019-03-10T02:57:55.109Z,64.30
2019-03-10T03:00:59.299Z,63.70
2019-03-10T03:04:03.594Z,64.40
2019-03-10T03:07:07.932Z,63.70
2019-03-10T03:10:14.134Z,62.90
2019-03-10T03:13:18.387Z,63.70
2019-03-10T03:16:22.745Z,63.30
2019-03-10T03:19:27.003Z,62.90
2019-03-10T03:22:31.388Z,63.10
2019-03-10T03:25:35.654Z,62.50
2019-03-10T03:28:40.167Z,62.70
2019-03-10T03:31:44.506Z,62.10
2019-03-10T03:34:48.791Z,61.60
2019-03-10T03:37:53.124Z,61.50
2019-03-10T03:41:02.985Z,60.40
2019-03-10T03:44:07.252Z,60.60
2019-03-10T03:47:11.558Z,60.50
2019-03-10T03:50:15.803Z,60.90
2019-03-10T03:53:20.120Z,61.10
2019-03-10T03:56:24.364Z,60.90
2019-03-10T03:59:28.734Z,60.50
2019-03-10T04:02:40.877Z,60.60
2019-03-10T04:05:45.170Z,60.70
2019-03-10T04:08:49.496Z,60.30
2019-03-10T04:11:53.719Z,60.00
2019-03-10T04:14:57.971Z,60.30
2019-03-10T04:18:02.253Z,60.30
2019-03-10T04:21:06.513Z,60.00
2019-03-10T04:24:10.823Z,60.00
2019-03-10T04:27:15.172Z,60.00
2019-03-10T04:30:19.447Z,60.30
2019-03-10T04:33:23.673Z,60.00
2019-03-10T04:36:28.023Z,60.10
2019-03-10T04:39:32.283Z,60.10
2019-03-10T04:42:36.506Z,60.00
2019-03-10T04:45:40.819Z,60.50
2019-03-10T04:48:45.111Z,60.60
2019-03-10T04:51:49.442Z,60.30
2019-03-10T04:55:11.579Z,60.30
2019-03-10T04:58:16.500Z,60.60
2019-03-10T05:01:21.275Z,60.30
2019-03-10T05:04:25.532Z,60.70
2019-03-10T05:07:29.888Z,60.60
2019-03-10T05:10:34.223Z,60.90
2019-03-10T05:13:38.580Z,61.40
2019-03-10T05:16:42.823Z,61.50
2019-03-10T05:19:47.107Z,61.60
2019-03-10T05:22:51.362Z,62.00
2019-03-10T05:25:57.350Z,62.10
2019-03-10T05:29:01.662Z,62.30
2019-03-10T05:32:06.022Z,62.50
2019-03-10T05:35:10.492Z,62.60
2019-03-10T05:38:14.699Z,62.80
2019-03-10T05:41:18.945Z,62.90
2019-03-10T05:44:23.302Z,63.10
2019-03-10T05:47:27.548Z,63.60
2019-03-10T05:50:31.747Z,63.20
2019-03-10T05:53:35.943Z,63.40
2019-03-10T05:56:40.330Z,63.60
2019-03-10T05:59:44.669Z,64.90
2019-03-10T06:02:49.028Z,64.20
2019-03-10T06:05:53.195Z,64.40
2019-03-10T06:08:57.488Z,64.70
2019-03-10T06:12:01.743Z,64.90
2019-03-10T06:15:06.190Z,65.20
2019-03-10T06:18:13.985Z,65.00
2019-03-10T06:21:16.479Z,65.50
2019-03-10T06:24:20.807Z,65.70
2019-03-10T06:27:25.146Z,65.60
2019-03-10T06:30:29.619Z,65.50
2019-03-10T06:33:33.948Z,65.60
2019-03-10T06:36:38.218Z,65.70
2019-03-10T06:39:42.564Z,65.90
2019-03-10T06:42:46.739Z,66.00
2019-03-10T06:45:51.023Z,65.90
2019-03-10T06:48:55.347Z,65.90
2019-03-10T06:51:59.693Z,66.70
2019-03-10T06:55:04.035Z,65.90
2019-03-10T06:58:08.416Z,65.60
2019-03-10T07:01:12.686Z,65.60
2019-03-10T07:04:17.036Z,65.70
2019-03-10T07:07:21.302Z,65.60
2019-03-10T07:10:25.657Z,65.30
2019-03-10T07:13:29.987Z,65.30
2019-03-10T07:16:34.359Z,65.00
2019-03-10T07:19:38.727Z,64.90
2019-03-10T07:22:43.224Z,64.80
2019-03-10T07:25:49.100Z,64.10
2019-03-10T07:29:01.931Z,63.30
2019-03-10T07:32:28.019Z,63.20
2019-03-10T07:35:40.189Z,63.30
2019-03-10T07:38:59.252Z,63.40
2019-03-10T07:42:26.715Z,62.70
2019-03-10T07:45:52.785Z,62.90
2019-03-10T07:49:09.811Z,63.00
2019-03-10T07:52:30.736Z,62.50
2019-03-10T07:55:44.372Z,62.10
2019-03-10T07:59:06.648Z,62.00
2019-03-10T08:02:48.166Z,61.50
2019-03-10T08:06:09.995Z,61.20
2019-03-10T08:09:45.620Z,59.50
2019-03-10T08:13:11.744Z,60.30
2019-03-10T08:16:35.256Z,60.20
2019-03-10T08:19:58.567Z,60.20
2019-03-10T08:23:33.943Z,58.90
2019-03-10T08:26:54.528Z,59.80
2019-03-10T08:30:12.863Z,59.00
2019-03-10T08:33:35.187Z,59.30
2019-03-10T08:37:10.604Z,56.70
2019-03-10T08:40:34.803Z,55.00
2019-03-10T08:43:49.792Z,56.90
2019-03-10T08:47:13.167Z,57.10
2019-03-10T08:50:26.961Z,57.70
2019-03-10T08:53:52.293Z,58.30
2019-03-10T08:57:10.255Z,58.00
2019-03-10T09:00:45.799Z,58.10
2019-03-10T09:04:07.805Z,57.10
2019-03-10T09:07:36.569Z,56.70
2019-03-10T09:10:52.664Z,57.80
2019-03-10T09:14:15.992Z,57.60
2019-03-10T09:17:38.824Z,57.80
2019-03-10T09:21:04.721Z,58.10
2019-03-10T09:24:34.154Z,58.00
2019-03-10T09:28:06.570Z,56.60
2019-03-10T09:31:27.256Z,57.60
2019-03-10T09:34:56.813Z,57.50
2019-03-10T09:38:28.997Z,58.00
2019-03-10T09:41:40.719Z,56.10
2019-03-10T09:45:04.052Z,56.60
2019-03-10T09:48:39.533Z,57.20
2019-03-10T09:52:02.955Z,56.40
2019-03-10T09:55:35.519Z,56.00
2019-03-10T09:59:01.771Z,55.80
2019-03-10T10:02:25.773Z,56.60
2019-03-10T10:05:46.364Z,56.70
2019-03-10T10:09:01.800Z,56.40
2019-03-10T10:12:40.272Z,56.60
2019-03-10T10:16:03.660Z,55.00
2019-03-10T10:19:24.131Z,54.60
2019-03-10T10:22:59.596Z,54.80
2019-03-10T10:26:21.976Z,54.50
2019-03-10T10:29:48.375Z,54.30
2019-03-10T10:33:07.543Z,54.50
2019-03-10T10:36:22.953Z,54.90
2019-03-10T10:39:38.508Z,53.80
2019-03-10T10:43:04.886Z,52.10
2019-03-10T10:46:21.285Z,51.50
2019-03-10T10:49:44.736Z,52.10
2019-03-10T10:53:01.000Z,52.10
2019-03-10T10:56:33.432Z,51.30
2019-03-10T10:59:47.019Z,50.90
2019-03-10T11:03:09.443Z,51.60
2019-03-10T11:06:28.822Z,51.20
2019-03-10T11:09:59.117Z,51.00
2019-03-10T11:13:21.391Z,51.40
2019-03-10T11:16:45.732Z,51.80
2019-03-10T11:20:14.252Z,51.60
2019-03-10T11:23:24.899Z,50.30
2019-03-10T11:26:36.978Z,51.50
2019-03-10T11:29:52.784Z,50.60
2019-03-10T11:33:15.136Z,49.90
2019-03-10T11:36:45.983Z,50.50
2019-03-10T11:40:24.452Z,51.00
2019-03-10T11:43:46.954Z,50.80
2019-03-10T11:47:09.930Z,51.50
2019-03-10T11:50:45.904Z,51.30
2019-03-10T11:53:58.115Z,50.50
2019-03-10T11:57:24.586Z,51.10
2019-03-10T12:00:46.194Z,51.70
2019-03-10T12:04:10.508Z,51.20
2019-03-10T12:07:32.887Z,51.10
2019-03-10T12:10:37.970Z,51.20
2019-03-10T12:13:42.425Z,50.00
2019-03-10T12:16:46.798Z,50.40
2019-03-10T12:19:51.136Z,50.40
2019-03-10T12:22:56.664Z,49.60
2019-03-10T12:26:01.051Z,50.30
2019-03-10T12:29:05.557Z,51.30
2019-03-10T12:32:09.928Z,52.00
2019-03-10T12:35:14.275Z,52.60
2019-03-10T12:38:18.666Z,52.80
2019-03-10T12:41:23.053Z,53.40
2019-03-10T12:44:27.348Z,53.80
2019-03-10T12:47:31.637Z,54.60
2019-03-10T12:50:35.991Z,58.10
2019-03-10T12:53:40.331Z,62.10
2019-03-10T12:56:44.648Z,68.00
2019-03-10T12:59:48.918Z,70.80
2019-03-10T13:02:53.314Z,71.60
2019-03-10T13:05:57.646Z,73.90
2019-03-10T13:09:01.994Z,72.90
2019-03-10T13:12:06.392Z,73.90
2019-03-10T13:15:10.967Z,75.10
2019-03-10T13:18:15.148Z,76.40
2019-03-10T13:21:19.578Z,75.70
2019-03-10T13:24:23.974Z,76.70
2019-03-10T13:27:28.363Z,77.70
2019-03-10T13:30:32.722Z,76.70
2019-03-10T13:33:37.137Z,76.00
2019-03-10T13:36:41.402Z,74.90
2019-03-10T13:39:46.797Z,74.60
2019-03-10T13:42:51.112Z,74.20
2019-03-10T13:45:55.393Z,74.30
2019-03-10T13:48:59.675Z,74.40
2019-03-10T13:52:04.125Z,74.30
2019-03-10T13:55:08.834Z,73.80
2019-03-10T13:58:13.156Z,74.20
2019-03-10T14:01:17.508Z,74.50
2019-03-10T14:04:21.908Z,74.00
2019-03-10T14:07:26.362Z,74.50
2019-03-10T14:10:31.082Z,74.50
2019-03-10T14:13:35.680Z,74.50
2019-03-10T14:16:40.108Z,74.50
2019-03-10T14:19:44.431Z,75.50
2019-03-10T14:22:48.821Z,74.20
2019-03-10T14:25:53.277Z,74.30
2019-03-10T14:28:57.646Z,73.80
2019-03-10T14:32:02.026Z,73.80
2019-03-10T14:35:06.664Z,73.90
2019-03-10T14:38:10.968Z,74.20
2019-03-10T14:41:15.366Z,74.60
2019-03-10T14:44:19.788Z,74.60
2019-03-10T14:47:24.255Z,74.60
2019-03-10T14:50:28.559Z,74.60
2019-03-10T14:53:33.243Z,74.70
2019-03-10T14:56:40.420Z,74.60
2019-03-10T14:59:44.842Z,74.70
2019-03-10T15:02:49.311Z,74.90
2019-03-10T15:05:56.551Z,74.90
2019-03-10T15:09:01.040Z,74.90
2019-03-10T15:12:05.555Z,75.80
2019-03-10T15:15:21.295Z,75.00
2019-03-10T15:18:17.274Z,74.70
2019-03-10T15:21:21.798Z,74.70
2019-03-10T15:24:26.196Z,74.60
2019-03-10T15:27:30.583Z,74.60
2019-03-10T15:30:34.917Z,74.60
2019-03-10T15:33:39.426Z,74.60
2019-03-10T15:36:43.897Z,74.60
2019-03-10T15:39:48.250Z,74.90
2019-03-10T15:42:52.689Z,75.30
2019-03-10T15:45:57.219Z,75.60
2019-03-10T15:49:01.614Z,75.50
2019-03-10T15:52:07.474Z,75.60
2019-03-10T15:55:12.101Z,75.50
2019-03-10T15:58:16.361Z,75.40
2019-03-10T16:01:20.586Z,75.60
2019-03-10T16:04:24.786Z,75.50
2019-03-10T16:07:29.201Z,75.30
2019-03-10T16:10:33.692Z,75.20
2019-03-10T16:13:38.667Z,75.20
2019-03-10T16:16:43.089Z,75.40
2019-03-10T16:19:47.545Z,75.30
2019-03-10T16:22:51.919Z,75.30
2019-03-10T16:25:56.290Z,75.20
2019-03-10T16:29:00.744Z,75.10
2019-03-10T16:32:05.304Z,75.30
2019-03-10T16:35:10.303Z,75.60
2019-03-10T16:38:14.695Z,75.40
2019-03-10T16:41:19.871Z,75.60
2019-03-10T16:44:24.308Z,75.70
2019-03-10T16:47:28.654Z,75.70
2019-03-10T16:50:32.975Z,75.60
2019-03-10T16:53:37.349Z,75.60
2019-03-10T16:56:41.740Z,75.60
2019-03-10T16:59:46.102Z,75.70
2019-03-10T17:02:50.836Z,75.70
2019-03-10T17:05:55.105Z,75.80
2019-03-10T17:08:59.430Z,75.80
2019-03-10T17:12:03.884Z,75.80
2019-03-10T17:15:10.403Z,75.90
2019-03-10T17:18:14.789Z,75.90
2019-03-10T17:21:19.267Z,76.00
2019-03-10T17:24:23.633Z,76.20
2019-03-10T17:27:28.272Z,77.20
2019-03-10T17:30:34.477Z,76.50
2019-03-10T17:33:38.882Z,76.20
2019-03-10T17:36:43.244Z,76.20
2019-03-10T17:39:48.101Z,76.30
2019-03-10T17:42:52.873Z,76.20
2019-03-10T17:45:57.294Z,76.20
2019-03-10T17:49:01.702Z,76.20
2019-03-10T17:52:14.331Z,76.20
2019-03-10T17:55:14.736Z,76.30
2019-03-10T17:58:20.432Z,76.30
2019-03-10T18:01:26.659Z,76.50
2019-03-10T18:04:31.073Z,76.70
2019-03-10T18:07:35.428Z,76.80
2019-03-10T18:10:39.820Z,76.80
2019-03-10T18:13:44.211Z,77.00
2019-03-10T18:16:48.612Z,77.00
2019-03-10T18:19:57.412Z,77.00
2019-03-10T18:23:01.833Z,77.00
2019-03-10T18:26:06.221Z,76.90
2019-03-10T18:29:12.697Z,77.00
2019-03-10T18:32:20.299Z,77.10
2019-03-10T18:35:24.690Z,77.60
2019-03-10T18:38:29.096Z,77.80
2019-03-10T18:41:33.830Z,77.80
2019-03-10T18:44:38.215Z,77.80
2019-03-10T18:47:42.642Z,77.80
2019-03-10T18:50:47.212Z,77.90
2019-03-10T18:53:52.524Z,79.20
2019-03-10T18:56:56.796Z,79.30
2019-03-10T19:00:01.108Z,79.80
2019-03-10T19:03:05.499Z,80.00
2019-03-10T19:06:10.012Z,81.20
2019-03-10T19:09:16.486Z,81.80
2019-03-10T19:12:21.109Z,81.60
2019-03-10T19:15:25.526Z,82.10
2019-03-10T19:18:30.016Z,81.60
2019-03-10T19:21:35.747Z,82.00
2019-03-10T19:24:40.128Z,82.90
2019-03-10T19:27:44.614Z,81.70
2019-03-10T19:30:48.991Z,81.50
2019-03-10T19:33:55.670Z,81.80
2019-03-10T19:37:00.111Z,82.40
2019-03-10T19:40:05.230Z,82.40
2019-03-10T19:43:09.698Z,82.60
2019-03-10T19:46:14.093Z,82.50
2019-03-10T19:49:18.549Z,82.70
2019-03-10T19:52:22.934Z,82.60
2019-03-10T19:55:28.730Z,82.70
2019-03-10T19:58:35.919Z,82.70
2019-03-10T20:01:40.315Z,82.80
2019-03-10T20:04:44.761Z,83.10
2019-03-10T20:07:49.130Z,83.40
2019-03-10T20:10:53.491Z,83.10
2019-03-10T20:13:57.870Z,84.30
2019-03-10T20:17:02.303Z,86.30
2019-03-10T20:20:08.228Z,86.70
2019-03-10T20:23:12.650Z,85.80
2019-03-10T20:26:16.960Z,86.10
2019-03-10T20:29:21.335Z,86.90
2019-03-10T20:32:25.724Z,87.20
2019-03-10T20:35:29.987Z,87.40
2019-03-10T20:38:34.355Z,87.20
2019-03-10T20:41:38.640Z,86.80
2019-03-10T20:44:43.010Z,86.90
2019-03-10T20:47:47.773Z,87.00
2019-03-10T20:50:52.163Z,86.90
2019-03-10T20:53:56.400Z,85.90
2019-03-10T20:57:00.714Z,87.10
2019-03-10T21:00:06.257Z,87.30
2019-03-10T21:03:10.724Z,87.30
2019-03-10T21:06:15.024Z,86.60
2019-03-10T21:09:19.335Z,86.50
2019-03-10T21:12:23.604Z,86.50
2019-03-10T21:15:27.836Z,86.80
2019-03-10T21:18:32.199Z,88.10
2019-03-10T21:21:36.603Z,88.50
2019-03-10T21:24:41.031Z,87.80
2019-03-10T21:27:45.527Z,87.60
2019-03-10T21:30:49.887Z,88.10
2019-03-10T21:33:54.370Z,88.00
2019-03-10T21:36:58.771Z,88.00
2019-03-10T21:40:03.149Z,88.20
2019-03-10T21:43:07.444Z,87.80
2019-03-10T21:46:11.862Z,87.90
2019-03-10T21:49:16.458Z,87.70
2019-03-10T21:52:20.870Z,88.70
2019-03-10T21:55:26.184Z,88.00
2019-03-10T21:58:30.640Z,88.00
2019-03-10T22:01:34.952Z,88.20
2019-03-10T22:04:39.259Z,88.20
2019-03-10T22:07:43.550Z,87.80
2019-03-10T22:10:48.002Z,88.00
2019-03-10T22:13:52.491Z,88.10
2019-03-10T22:16:58.453Z,87.80
2019-03-10T22:20:02.818Z,87.60
2019-03-10T22:23:07.207Z,87.50
2019-03-10T22:26:11.663Z,87.30
2019-03-10T22:29:16.046Z,87.30
2019-03-10T22:32:20.380Z,86.60
2019-03-10T22:35:24.770Z,86.20
2019-03-10T22:38:29.083Z,84.10
2019-03-10T22:41:33.461Z,82.70
2019-03-10T22:44:37.681Z,80.30
2019-03-10T22:47:42.120Z,80.90
2019-03-10T22:50:46.390Z,79.90
2019-03-10T22:53:50.803Z,77.40
2019-03-10T22:56:55.155Z,77.50
2019-03-10T22:59:59.450Z,76.40
2019-03-10T23:03:04.040Z,75.20
2019-03-10T23:06:08.376Z,74.70
2019-03-10T23:09:12.831Z,73.90
2019-03-10T23:12:17.108Z,73.10
2019-03-10T23:15:21.359Z,73.60
2019-03-10T23:18:25.713Z,73.50
2019-03-10T23:21:29.928Z,73.40
2019-03-10T23:24:34.238Z,73.90
2019-03-10T23:27:38.584Z,74.70
2019-03-10T23:30:42.859Z,74.90
2019-03-10T23:33:47.218Z,74.80
2019-03-10T23:36:51.625Z,74.30
2019-03-10T23:39:55.979Z,73.90
2019-03-10T23:43:00.387Z,73.20
2019-03-10T23:46:04.708Z,72.50
2019-03-10T23:49:08.922Z,72.40
2019-03-10T23:52:13.261Z,72.40
2019-03-10T23:55:17.677Z,71.90
2019-03-10T23:58:22.091Z,71.30
